sensor_id;sensor_type;location;lat;lon;timestamp;temperature;humidity
11925;DHT22;6022;48.768;18.608;2022-10-16T00:01:43;13.30;99.90
11925;DHT22;6022;48.768;18.608;2022-10-16T00:04:10;14.00;99.90
11925;DHT22;6022;48.768;18.608;2022-10-16T00:06:37;14.60;99.90
11925;DHT22;6022;48.768;18.608;2022-10-16T00:09:06;14.20;99.90
11925;DHT22;6022;48.768;18.608;2022-10-16T00:11:35;14.10;99.90
11925;DHT22;6022;48.768;18.608;2022-10-16T00:14:07;13.40;99.90
11925;DHT22;6022;48.768;18.608;2022-10-16T00:16:36;14.40;99.90
11925;DHT22;6022;48.768;18.608;2022-10-16T00:19:04;14.80;99.90
11925;DHT22;6022;48.768;18.608;2022-10-16T00:21:32;14.60;99.90
11925;DHT22;6022;48.768;18.608;2022-10-16T00:24:03;14.50;99.90
11925;DHT22;6022;48.768;18.608;2022-10-16T00:26:33;14.70;99.90
11925;DHT22;6022;48.768;18.608;2022-10-16T00:29:02;13.50;99.90
11925;DHT22;6022;48.768;18.608;2022-10-16T00:31:30;14.30;99.90
11925;DHT22;6022;48.768;18.608;2022-10-16T00:33:58;13.10;99.90
11925;DHT22;6022;48.768;18.608;2022-10-16T00:36:26;15.10;99.90
11925;DHT22;6022;48.768;18.608;2022-10-16T00:38:55;15.30;99.90
11925;DHT22;6022;48.768;18.608;2022-10-16T00:41:26;14.80;99.90
11925;DHT22;6022;48.768;18.608;2022-10-16T00:44:00;13.50;99.90
11925;DHT22;6022;48.768;18.608;2022-10-16T00:46:39;14.60;99.90
11925;DHT22;6022;48.768;18.608;2022-10-16T00:49:15;13.20;99.90
11925;DHT22;6022;48.768;18.608;2022-10-16T00:51:49;13.90;99.90
11925;DHT22;6022;48.768;18.608;2022-10-16T00:54:27;15.00;99.90
11925;DHT22;6022;48.768;18.608;2022-10-16T00:57:01;14.20;99.90
11925;DHT22;6022;48.768;18.608;2022-10-16T00:59:34;14.30;99.90
11925;DHT22;6022;48.768;18.608;2022-10-16T01:02:05;13.90;99.90
11925;DHT22;6022;48.768;18.608;2022-10-16T01:04:39;14.20;99.90
11925;DHT22;6022;48.768;18.608;2022-10-16T01:13:15;14.00;99.90
11925;DHT22;6022;48.768;18.608;2022-10-16T01:16:05;14.00;99.90
11925;DHT22;6022;48.768;18.608;2022-10-16T01:18:49;13.50;99.90
11925;DHT22;6022;48.768;18.608;2022-10-16T01:27:09;14.40;99.90
11925;DHT22;6022;48.768;18.608;2022-10-16T01:35:42;13.80;99.90
11925;DHT22;6022;48.768;18.608;2022-10-16T01:38:16;14.20;99.90
11925;DHT22;6022;48.768;18.608;2022-10-16T01:40:54;13.70;99.90
11925;DHT22;6022;48.768;18.608;2022-10-16T01:43:33;13.70;99.90
11925;DHT22;6022;48.768;18.608;2022-10-16T01:46:05;13.30;99.90
11925;DHT22;6022;48.768;18.608;2022-10-16T01:48:36;13.70;99.90
11925;DHT22;6022;48.768;18.608;2022-10-16T01:51:14;14.10;99.90
11925;DHT22;6022;48.768;18.608;2022-10-16T01:53:48;13.50;99.90
11925;DHT22;6022;48.768;18.608;2022-10-16T01:56:22;14.10;99.90
11925;DHT22;6022;48.768;18.608;2022-10-16T01:58:57;13.60;99.90
11925;DHT22;6022;48.768;18.608;2022-10-16T02:01:32;14.60;99.90
11925;DHT22;6022;48.768;18.608;2022-10-16T02:04:09;13.90;99.90
11925;DHT22;6022;48.768;18.608;2022-10-16T02:06:42;13.70;99.90
11925;DHT22;6022;48.768;18.608;2022-10-16T02:09:10;15.00;99.90
11925;DHT22;6022;48.768;18.608;2022-10-16T02:11:37;13.90;99.90
11925;DHT22;6022;48.768;18.608;2022-10-16T02:14:06;13.70;99.90
11925;DHT22;6022;48.768;18.608;2022-10-16T02:16:43;13.90;99.90
11925;DHT22;6022;48.768;18.608;2022-10-16T02:19:13;13.30;99.90
11925;DHT22;6022;48.768;18.608;2022-10-16T02:21:56;13.30;99.90
11925;DHT22;6022;48.768;18.608;2022-10-16T02:24:46;14.40;99.90
11925;DHT22;6022;48.768;18.608;2022-10-16T02:27:47;14.20;99.90
11925;DHT22;6022;48.768;18.608;2022-10-16T02:33:01;13.20;99.90
11925;DHT22;6022;48.768;18.608;2022-10-16T02:35:31;13.90;99.90
11925;DHT22;6022;48.768;18.608;2022-10-16T02:37:59;13.80;99.90
11925;DHT22;6022;48.768;18.608;2022-10-16T02:40:27;13.60;99.90
11925;DHT22;6022;48.768;18.608;2022-10-16T02:42:56;13.80;99.90
11925;DHT22;6022;48.768;18.608;2022-10-16T02:45:23;14.60;99.90
11925;DHT22;6022;48.768;18.608;2022-10-16T02:47:51;13.10;99.90
11925;DHT22;6022;48.768;18.608;2022-10-16T02:50:18;14.00;99.90
11925;DHT22;6022;48.768;18.608;2022-10-16T02:52:46;14.10;99.90
11925;DHT22;6022;48.768;18.608;2022-10-16T02:55:13;14.10;99.90
11925;DHT22;6022;48.768;18.608;2022-10-16T02:57:41;13.90;99.90
11925;DHT22;6022;48.768;18.608;2022-10-16T03:00:12;13.80;99.90
11925;DHT22;6022;48.768;18.608;2022-10-16T03:02:43;13.50;99.90
11925;DHT22;6022;48.768;18.608;2022-10-16T03:05:10;13.80;99.90
11925;DHT22;6022;48.768;18.608;2022-10-16T03:07:38;14.00;99.90
11925;DHT22;6022;48.768;18.608;2022-10-16T03:10:06;13.50;99.90
11925;DHT22;6022;48.768;18.608;2022-10-16T03:12:34;13.90;99.90
11925;DHT22;6022;48.768;18.608;2022-10-16T03:15:02;13.90;99.90
11925;DHT22;6022;48.768;18.608;2022-10-16T03:17:32;13.00;99.90
11925;DHT22;6022;48.768;18.608;2022-10-16T03:19:59;14.50;99.90
11925;DHT22;6022;48.768;18.608;2022-10-16T03:22:27;12.90;99.90
11925;DHT22;6022;48.768;18.608;2022-10-16T03:24:54;13.60;99.90
11925;DHT22;6022;48.768;18.608;2022-10-16T03:27:22;12.90;99.90
11925;DHT22;6022;48.768;18.608;2022-10-16T03:29:49;14.60;99.90
11925;DHT22;6022;48.768;18.608;2022-10-16T03:32:16;13.60;99.90
11925;DHT22;6022;48.768;18.608;2022-10-16T03:34:45;14.00;99.90
11925;DHT22;6022;48.768;18.608;2022-10-16T03:37:12;14.10;99.90
11925;DHT22;6022;48.768;18.608;2022-10-16T03:39:40;14.00;99.90
11925;DHT22;6022;48.768;18.608;2022-10-16T03:42:07;14.10;99.90
11925;DHT22;6022;48.768;18.608;2022-10-16T03:44:34;13.30;99.90
11925;DHT22;6022;48.768;18.608;2022-10-16T03:47:02;13.40;99.90
11925;DHT22;6022;48.768;18.608;2022-10-16T03:49:29;13.90;99.90
11925;DHT22;6022;48.768;18.608;2022-10-16T03:51:57;13.00;99.90
11925;DHT22;6022;48.768;18.608;2022-10-16T03:54:24;13.10;99.90
11925;DHT22;6022;48.768;18.608;2022-10-16T03:56:51;13.60;99.90
11925;DHT22;6022;48.768;18.608;2022-10-16T03:59:19;13.70;99.90
11925;DHT22;6022;48.768;18.608;2022-10-16T04:01:46;13.30;99.90
11925;DHT22;6022;48.768;18.608;2022-10-16T04:04:13;13.20;99.90
11925;DHT22;6022;48.768;18.608;2022-10-16T04:06:41;13.50;99.90
11925;DHT22;6022;48.768;18.608;2022-10-16T04:09:09;13.10;99.90
11925;DHT22;6022;48.768;18.608;2022-10-16T04:11:36;13.90;99.90
11925;DHT22;6022;48.768;18.608;2022-10-16T04:14:03;13.90;99.90
11925;DHT22;6022;48.768;18.608;2022-10-16T04:16:30;14.50;99.90
11925;DHT22;6022;48.768;18.608;2022-10-16T04:18:58;13.00;99.90
11925;DHT22;6022;48.768;18.608;2022-10-16T04:21:25;13.30;99.90
11925;DHT22;6022;48.768;18.608;2022-10-16T04:23:52;13.50;99.90
11925;DHT22;6022;48.768;18.608;2022-10-16T04:26:20;13.60;99.90
11925;DHT22;6022;48.768;18.608;2022-10-16T04:31:15;13.00;99.90
11925;DHT22;6022;48.768;18.608;2022-10-16T04:33:43;14.60;99.90
11925;DHT22;6022;48.768;18.608;2022-10-16T04:36:11;13.90;99.90
11925;DHT22;6022;48.768;18.608;2022-10-16T04:38:40;13.00;99.90
11925;DHT22;6022;48.768;18.608;2022-10-16T04:41:08;13.40;99.90
11925;DHT22;6022;48.768;18.608;2022-10-16T04:43:35;13.60;99.90
11925;DHT22;6022;48.768;18.608;2022-10-16T04:46:02;12.90;99.90
11925;DHT22;6022;48.768;18.608;2022-10-16T04:48:32;13.10;99.90
11925;DHT22;6022;48.768;18.608;2022-10-16T04:50:59;12.60;99.90
11925;DHT22;6022;48.768;18.608;2022-10-16T04:53:26;13.20;99.90
11925;DHT22;6022;48.768;18.608;2022-10-16T04:55:54;14.50;99.90
11925;DHT22;6022;48.768;18.608;2022-10-16T04:58:23;13.40;99.90
11925;DHT22;6022;48.768;18.608;2022-10-16T05:00:50;13.50;99.90
11925;DHT22;6022;48.768;18.608;2022-10-16T05:03:17;13.50;99.90
11925;DHT22;6022;48.768;18.608;2022-10-16T05:05:46;12.90;99.90
11925;DHT22;6022;48.768;18.608;2022-10-16T05:08:15;12.80;99.90
11925;DHT22;6022;48.768;18.608;2022-10-16T05:10:44;12.20;99.90
11925;DHT22;6022;48.768;18.608;2022-10-16T05:15:39;12.80;99.90
11925;DHT22;6022;48.768;18.608;2022-10-16T05:18:08;12.90;99.90
11925;DHT22;6022;48.768;18.608;2022-10-16T05:20:35;12.50;99.90
11925;DHT22;6022;48.768;18.608;2022-10-16T05:23:03;11.90;99.90
11925;DHT22;6022;48.768;18.608;2022-10-16T05:25:30;12.60;99.90
11925;DHT22;6022;48.768;18.608;2022-10-16T05:27:57;13.60;99.90
11925;DHT22;6022;48.768;18.608;2022-10-16T05:30:25;13.80;99.90
11925;DHT22;6022;48.768;18.608;2022-10-16T05:32:52;13.10;99.90
11925;DHT22;6022;48.768;18.608;2022-10-16T05:35:20;13.00;99.90
11925;DHT22;6022;48.768;18.608;2022-10-16T05:37:48;13.40;99.90
11925;DHT22;6022;48.768;18.608;2022-10-16T05:42:43;13.60;99.90
11925;DHT22;6022;48.768;18.608;2022-10-16T05:45:11;13.70;99.90
11925;DHT22;6022;48.768;18.608;2022-10-16T05:47:39;13.80;99.90
11925;DHT22;6022;48.768;18.608;2022-10-16T05:50:06;14.70;99.90
11925;DHT22;6022;48.768;18.608;2022-10-16T05:52:34;13.70;99.90
11925;DHT22;6022;48.768;18.608;2022-10-16T05:55:01;14.20;99.90
11925;DHT22;6022;48.768;18.608;2022-10-16T05:59:57;13.70;99.90
11925;DHT22;6022;48.768;18.608;2022-10-16T06:02:26;14.00;99.90
11925;DHT22;6022;48.768;18.608;2022-10-16T06:04:54;14.00;99.90
11925;DHT22;6022;48.768;18.608;2022-10-16T06:07:21;14.70;99.90
11925;DHT22;6022;48.768;18.608;2022-10-16T06:09:53;15.20;99.90
11925;DHT22;6022;48.768;18.608;2022-10-16T06:12:23;15.20;99.90
11925;DHT22;6022;48.768;18.608;2022-10-16T06:14:50;14.50;99.90
11925;DHT22;6022;48.768;18.608;2022-10-16T06:17:18;14.30;99.90
11925;DHT22;6022;48.768;18.608;2022-10-16T06:22:13;14.60;99.90
11925;DHT22;6022;48.768;18.608;2022-10-16T06:27:08;15.00;99.90
11925;DHT22;6022;48.768;18.608;2022-10-16T06:29:35;14.80;99.90
11925;DHT22;6022;48.768;18.608;2022-10-16T06:32:02;15.50;99.90
11925;DHT22;6022;48.768;18.608;2022-10-16T06:34:29;15.50;99.90
11925;DHT22;6022;48.768;18.608;2022-10-16T06:36:56;15.30;99.90
11925;DHT22;6022;48.768;18.608;2022-10-16T06:39:24;14.70;99.90
11925;DHT22;6022;48.768;18.608;2022-10-16T06:41:51;15.10;99.90
11925;DHT22;6022;48.768;18.608;2022-10-16T06:46:45;14.90;99.90
11925;DHT22;6022;48.768;18.608;2022-10-16T06:49:13;14.10;99.90
11925;DHT22;6022;48.768;18.608;2022-10-16T06:51:42;15.50;99.90
11925;DHT22;6022;48.768;18.608;2022-10-16T06:54:09;14.90;99.90
11925;DHT22;6022;48.768;18.608;2022-10-16T06:56:36;14.90;99.90
11925;DHT22;6022;48.768;18.608;2022-10-16T06:59:04;14.60;99.90
11925;DHT22;6022;48.768;18.608;2022-10-16T07:01:32;15.70;99.90
11925;DHT22;6022;48.768;18.608;2022-10-16T07:04:00;16.20;99.90
11925;DHT22;6022;48.768;18.608;2022-10-16T07:06:32;15.80;99.90
11925;DHT22;6022;48.768;18.608;2022-10-16T07:09:04;16.00;99.90
11925;DHT22;6022;48.768;18.608;2022-10-16T07:11:33;15.80;99.90
11925;DHT22;6022;48.768;18.608;2022-10-16T07:14:02;15.60;99.90
11925;DHT22;6022;48.768;18.608;2022-10-16T07:16:31;16.00;99.90
11925;DHT22;6022;48.768;18.608;2022-10-16T07:19:02;16.10;99.90
11925;DHT22;6022;48.768;18.608;2022-10-16T07:21:32;16.00;99.90
11925;DHT22;6022;48.768;18.608;2022-10-16T07:24:07;16.40;99.90
11925;DHT22;6022;48.768;18.608;2022-10-16T07:26:39;15.00;99.90
11925;DHT22;6022;48.768;18.608;2022-10-16T07:29:12;15.60;99.90
11925;DHT22;6022;48.768;18.608;2022-10-16T07:31:47;15.00;99.90
11925;DHT22;6022;48.768;18.608;2022-10-16T07:34:16;16.20;99.90
11925;DHT22;6022;48.768;18.608;2022-10-16T07:36:48;16.10;99.90
11925;DHT22;6022;48.768;18.608;2022-10-16T07:39:16;15.70;99.90
11925;DHT22;6022;48.768;18.608;2022-10-16T07:41:44;15.80;99.90
11925;DHT22;6022;48.768;18.608;2022-10-16T07:44:11;16.10;99.90
11925;DHT22;6022;48.768;18.608;2022-10-16T07:46:38;15.70;99.90
11925;DHT22;6022;48.768;18.608;2022-10-16T07:49:05;15.30;99.90
11925;DHT22;6022;48.768;18.608;2022-10-16T07:51:33;16.20;99.90
11925;DHT22;6022;48.768;18.608;2022-10-16T07:54:03;15.40;99.90
11925;DHT22;6022;48.768;18.608;2022-10-16T07:56:31;16.00;99.90
11925;DHT22;6022;48.768;18.608;2022-10-16T07:58:59;16.10;99.90
11925;DHT22;6022;48.768;18.608;2022-10-16T08:01:29;16.20;99.90
11925;DHT22;6022;48.768;18.608;2022-10-16T08:03:57;15.90;99.90
11925;DHT22;6022;48.768;18.608;2022-10-16T08:06:24;16.50;99.90
11925;DHT22;6022;48.768;18.608;2022-10-16T08:08:55;15.60;99.90
11925;DHT22;6022;48.768;18.608;2022-10-16T08:11:22;15.80;99.90
11925;DHT22;6022;48.768;18.608;2022-10-16T08:13:50;17.10;99.90
11925;DHT22;6022;48.768;18.608;2022-10-16T08:16:17;15.40;99.90
11925;DHT22;6022;48.768;18.608;2022-10-16T08:18:45;16.80;99.90
11925;DHT22;6022;48.768;18.608;2022-10-16T08:21:18;16.70;99.90
11925;DHT22;6022;48.768;18.608;2022-10-16T08:23:52;17.80;99.90
11925;DHT22;6022;48.768;18.608;2022-10-16T08:28:54;17.10;99.90
11925;DHT22;6022;48.768;18.608;2022-10-16T08:31:22;16.80;99.90
11925;DHT22;6022;48.768;18.608;2022-10-16T08:33:50;17.10;99.90
11925;DHT22;6022;48.768;18.608;2022-10-16T08:36:19;16.90;99.90
11925;DHT22;6022;48.768;18.608;2022-10-16T08:38:50;16.80;99.90
11925;DHT22;6022;48.768;18.608;2022-10-16T08:47:18;16.40;99.90
11925;DHT22;6022;48.768;18.608;2022-10-16T08:49:59;16.20;99.90
11925;DHT22;6022;48.768;18.608;2022-10-16T08:52:32;17.00;99.90
11925;DHT22;6022;48.768;18.608;2022-10-16T08:55:04;16.30;99.90
11925;DHT22;6022;48.768;18.608;2022-10-16T09:00:09;16.60;99.90
11925;DHT22;6022;48.768;18.608;2022-10-16T09:08:37;17.00;99.90
11925;DHT22;6022;48.768;18.608;2022-10-16T09:14:07;17.50;99.90
11925;DHT22;6022;48.768;18.608;2022-10-16T09:16:56;17.40;99.90
11925;DHT22;6022;48.768;18.608;2022-10-16T09:19:39;17.30;99.90
11925;DHT22;6022;48.768;18.608;2022-10-16T09:22:16;17.60;99.90
11925;DHT22;6022;48.768;18.608;2022-10-16T09:24:45;17.40;99.90
11925;DHT22;6022;48.768;18.608;2022-10-16T09:27:14;16.50;99.90
11925;DHT22;6022;48.768;18.608;2022-10-16T09:29:41;17.50;99.90
11925;DHT22;6022;48.768;18.608;2022-10-16T09:32:19;17.80;99.90
11925;DHT22;6022;48.768;18.608;2022-10-16T09:34:52;18.10;99.90
11925;DHT22;6022;48.768;18.608;2022-10-16T09:37:24;17.90;99.90
11925;DHT22;6022;48.768;18.608;2022-10-16T09:39:53;18.40;99.90
11925;DHT22;6022;48.768;18.608;2022-10-16T09:42:31;18.90;99.90
11925;DHT22;6022;48.768;18.608;2022-10-16T09:45:01;19.30;99.90
11925;DHT22;6022;48.768;18.608;2022-10-16T09:47:31;19.20;99.90
11925;DHT22;6022;48.768;18.608;2022-10-16T09:50:05;18.10;99.90
11925;DHT22;6022;48.768;18.608;2022-10-16T09:53:12;19.40;99.90
11925;DHT22;6022;48.768;18.608;2022-10-16T09:55:51;18.90;99.90
11925;DHT22;6022;48.768;18.608;2022-10-16T09:58:23;19.30;99.90
11925;DHT22;6022;48.768;18.608;2022-10-16T10:00:53;18.50;99.90
11925;DHT22;6022;48.768;18.608;2022-10-16T10:03:44;19.30;99.90
11925;DHT22;6022;48.768;18.608;2022-10-16T10:06:26;19.50;99.90
11925;DHT22;6022;48.768;18.608;2022-10-16T10:08:59;19.70;99.90
11925;DHT22;6022;48.768;18.608;2022-10-16T10:11:41;20.20;99.90
11925;DHT22;6022;48.768;18.608;2022-10-16T10:14:32;20.60;99.90
11925;DHT22;6022;48.768;18.608;2022-10-16T10:19:51;21.40;99.90
11925;DHT22;6022;48.768;18.608;2022-10-16T10:33:55;20.40;99.90
11925;DHT22;6022;48.768;18.608;2022-10-16T10:36:35;20.70;99.90
11925;DHT22;6022;48.768;18.608;2022-10-16T10:42:06;19.80;99.90
11925;DHT22;6022;48.768;18.608;2022-10-16T10:59:55;20.80;99.90
11925;DHT22;6022;48.768;18.608;2022-10-16T11:02:44;20.30;99.90
11925;DHT22;6022;48.768;18.608;2022-10-16T11:08:50;20.70;99.90
11925;DHT22;6022;48.768;18.608;2022-10-16T11:14:24;20.80;99.90
11925;DHT22;6022;48.768;18.608;2022-10-16T11:17:03;19.90;99.90
11925;DHT22;6022;48.768;18.608;2022-10-16T11:27:57;18.90;99.90
11925;DHT22;6022;48.768;18.608;2022-10-16T11:30:55;19.30;99.90
11925;DHT22;6022;48.768;18.608;2022-10-16T11:33:36;19.60;99.90
11925;DHT22;6022;48.768;18.608;2022-10-16T11:47:44;19.00;99.90
11925;DHT22;6022;48.768;18.608;2022-10-16T11:55:50;19.80;99.90
11925;DHT22;6022;48.768;18.608;2022-10-16T11:58:29;18.70;99.90
11925;DHT22;6022;48.768;18.608;2022-10-16T12:02:13;20.40;99.90
11925;DHT22;6022;48.768;18.608;2022-10-16T12:04:49;19.50;99.90
11925;DHT22;6022;48.768;18.608;2022-10-16T12:07:35;19.30;99.90
11925;DHT22;6022;48.768;18.608;2022-10-16T12:10:22;20.30;99.90
11925;DHT22;6022;48.768;18.608;2022-10-16T12:12:54;18.90;99.90
11925;DHT22;6022;48.768;18.608;2022-10-16T12:15:32;20.30;99.90
11925;DHT22;6022;48.768;18.608;2022-10-16T12:18:22;19.30;99.90
11925;DHT22;6022;48.768;18.608;2022-10-16T12:20:57;19.60;99.90
11925;DHT22;6022;48.768;18.608;2022-10-16T12:23:26;19.10;99.90
11925;DHT22;6022;48.768;18.608;2022-10-16T12:25:59;19.20;99.90
11925;DHT22;6022;48.768;18.608;2022-10-16T12:28:30;19.10;99.90
11925;DHT22;6022;48.768;18.608;2022-10-16T12:31:05;19.40;99.90
11925;DHT22;6022;48.768;18.608;2022-10-16T12:34:02;19.40;99.90
11925;DHT22;6022;48.768;18.608;2022-10-16T12:36:34;19.00;99.90
11925;DHT22;6022;48.768;18.608;2022-10-16T12:41:33;19.40;99.90
11925;DHT22;6022;48.768;18.608;2022-10-16T12:44:04;19.60;99.90
11925;DHT22;6022;48.768;18.608;2022-10-16T12:46:38;19.60;99.90
11925;DHT22;6022;48.768;18.608;2022-10-16T12:51:41;20.00;99.90
11925;DHT22;6022;48.768;18.608;2022-10-16T12:54:58;20.60;99.90
11925;DHT22;6022;48.768;18.608;2022-10-16T12:57:29;19.80;99.90
11925;DHT22;6022;48.768;18.608;2022-10-16T13:15:28;20.50;99.90
11925;DHT22;6022;48.768;18.608;2022-10-16T13:24:38;19.90;99.90
11925;DHT22;6022;48.768;18.608;2022-10-16T13:30:26;20.00;99.90
11925;DHT22;6022;48.768;18.608;2022-10-16T13:35:54;20.30;99.90
11925;DHT22;6022;48.768;18.608;2022-10-16T13:38:24;19.80;99.90
11925;DHT22;6022;48.768;18.608;2022-10-16T13:43:48;19.70;99.90
11925;DHT22;6022;48.768;18.608;2022-10-16T13:46:24;19.30;99.90
11925;DHT22;6022;48.768;18.608;2022-10-16T13:49:33;19.40;99.90
11925;DHT22;6022;48.768;18.608;2022-10-16T13:51:59;19.30;99.90
11925;DHT22;6022;48.768;18.608;2022-10-16T13:54:27;19.40;99.90
11925;DHT22;6022;48.768;18.608;2022-10-16T13:57:05;19.60;99.90
11925;DHT22;6022;48.768;18.608;2022-10-16T13:59:52;19.50;99.90
11925;DHT22;6022;48.768;18.608;2022-10-16T14:02:33;19.80;99.90
11925;DHT22;6022;48.768;18.608;2022-10-16T14:05:07;19.50;99.90
11925;DHT22;6022;48.768;18.608;2022-10-16T14:07:37;19.60;99.90
11925;DHT22;6022;48.768;18.608;2022-10-16T14:10:18;19.80;99.90
11925;DHT22;6022;48.768;18.608;2022-10-16T14:13:04;19.60;99.90
11925;DHT22;6022;48.768;18.608;2022-10-16T14:15:35;19.40;99.90
11925;DHT22;6022;48.768;18.608;2022-10-16T14:18:03;19.40;99.90
11925;DHT22;6022;48.768;18.608;2022-10-16T14:20:33;19.60;99.90
11925;DHT22;6022;48.768;18.608;2022-10-16T14:25:46;19.30;99.90
11925;DHT22;6022;48.768;18.608;2022-10-16T14:28:17;19.10;99.90
11925;DHT22;6022;48.768;18.608;2022-10-16T14:30:56;19.00;99.90
11925;DHT22;6022;48.768;18.608;2022-10-16T14:33:32;19.10;99.90
11925;DHT22;6022;48.768;18.608;2022-10-16T14:38:43;18.70;99.90
11925;DHT22;6022;48.768;18.608;2022-10-16T14:41:23;18.80;99.90
11925;DHT22;6022;48.768;18.608;2022-10-16T14:43:54;18.60;99.90
11925;DHT22;6022;48.768;18.608;2022-10-16T14:46:35;18.50;99.90
11925;DHT22;6022;48.768;18.608;2022-10-16T14:51:39;18.60;99.90
11925;DHT22;6022;48.768;18.608;2022-10-16T14:54:10;18.50;99.90
11925;DHT22;6022;48.768;18.608;2022-10-16T14:56:54;18.30;99.90
11925;DHT22;6022;48.768;18.608;2022-10-16T14:59:50;18.30;99.90
11925;DHT22;6022;48.768;18.608;2022-10-16T15:07:49;18.10;99.90
11925;DHT22;6022;48.768;18.608;2022-10-16T15:10:17;18.20;99.90
11925;DHT22;6022;48.768;18.608;2022-10-16T15:12:46;18.20;99.90
11925;DHT22;6022;48.768;18.608;2022-10-16T15:17:50;18.00;99.90
11925;DHT22;6022;48.768;18.608;2022-10-16T15:20:20;17.70;99.90
11925;DHT22;6022;48.768;18.608;2022-10-16T15:22:47;18.00;99.90
11925;DHT22;6022;48.768;18.608;2022-10-16T15:28:10;17.60;99.90
11925;DHT22;6022;48.768;18.608;2022-10-16T15:30:39;17.90;99.90
11925;DHT22;6022;48.768;18.608;2022-10-16T15:33:12;17.80;99.90
11925;DHT22;6022;48.768;18.608;2022-10-16T15:35:48;17.60;99.90
11925;DHT22;6022;48.768;18.608;2022-10-16T15:38:19;17.70;99.90
11925;DHT22;6022;48.768;18.608;2022-10-16T15:40:48;17.50;99.90
11925;DHT22;6022;48.768;18.608;2022-10-16T15:43:17;17.50;99.90
11925;DHT22;6022;48.768;18.608;2022-10-16T15:48:33;17.20;99.90
11925;DHT22;6022;48.768;18.608;2022-10-16T15:51:05;17.10;99.90
11925;DHT22;6022;48.768;18.608;2022-10-16T15:53:34;17.10;99.90
11925;DHT22;6022;48.768;18.608;2022-10-16T15:56:06;17.20;99.90
11925;DHT22;6022;48.768;18.608;2022-10-16T15:58:34;16.90;99.90
11925;DHT22;6022;48.768;18.608;2022-10-16T16:01:02;16.80;99.90
11925;DHT22;6022;48.768;18.608;2022-10-16T16:03:33;16.80;99.90
11925;DHT22;6022;48.768;18.608;2022-10-16T16:06:10;16.80;99.90
11925;DHT22;6022;48.768;18.608;2022-10-16T16:08:39;16.80;99.90
11925;DHT22;6022;48.768;18.608;2022-10-16T16:11:09;16.70;99.90
11925;DHT22;6022;48.768;18.608;2022-10-16T16:13:38;16.40;99.90
11925;DHT22;6022;48.768;18.608;2022-10-16T16:16:14;16.60;99.90
11925;DHT22;6022;48.768;18.608;2022-10-16T16:18:43;16.40;99.90
11925;DHT22;6022;48.768;18.608;2022-10-16T16:21:12;16.40;99.90
11925;DHT22;6022;48.768;18.608;2022-10-16T16:23:39;16.40;99.90
11925;DHT22;6022;48.768;18.608;2022-10-16T16:26:14;16.00;99.90
11925;DHT22;6022;48.768;18.608;2022-10-16T16:28:54;15.90;99.90
11925;DHT22;6022;48.768;18.608;2022-10-16T16:31:28;16.00;99.90
11925;DHT22;6022;48.768;18.608;2022-10-16T16:33:57;16.10;99.90
11925;DHT22;6022;48.768;18.608;2022-10-16T16:36:25;15.80;99.90
11925;DHT22;6022;48.768;18.608;2022-10-16T16:38:52;15.90;99.90
11925;DHT22;6022;48.768;18.608;2022-10-16T16:41:25;15.90;99.90
11925;DHT22;6022;48.768;18.608;2022-10-16T16:43:54;15.70;99.90
11925;DHT22;6022;48.768;18.608;2022-10-16T16:46:27;15.60;99.90
11925;DHT22;6022;48.768;18.608;2022-10-16T16:48:54;15.80;99.90
11925;DHT22;6022;48.768;18.608;2022-10-16T16:51:26;15.50;99.90
11925;DHT22;6022;48.768;18.608;2022-10-16T16:53:54;15.50;99.90
11925;DHT22;6022;48.768;18.608;2022-10-16T16:56:23;15.40;99.90
11925;DHT22;6022;48.768;18.608;2022-10-16T16:58:53;15.40;99.90
11925;DHT22;6022;48.768;18.608;2022-10-16T17:01:23;15.40;99.90
11925;DHT22;6022;48.768;18.608;2022-10-16T17:03:54;15.30;99.90
11925;DHT22;6022;48.768;18.608;2022-10-16T17:06:26;14.80;99.90
11925;DHT22;6022;48.768;18.608;2022-10-16T17:08:56;16.00;99.90
11925;DHT22;6022;48.768;18.608;2022-10-16T17:11:26;14.90;99.90
11925;DHT22;6022;48.768;18.608;2022-10-16T17:13:56;15.00;99.90
11925;DHT22;6022;48.768;18.608;2022-10-16T17:16:28;15.40;99.90
11925;DHT22;6022;48.768;18.608;2022-10-16T17:19:10;14.60;99.90
11925;DHT22;6022;48.768;18.608;2022-10-16T17:21:39;15.00;99.90
11925;DHT22;6022;48.768;18.608;2022-10-16T17:24:07;15.30;99.90
11925;DHT22;6022;48.768;18.608;2022-10-16T17:26:36;15.30;99.90
11925;DHT22;6022;48.768;18.608;2022-10-16T17:29:05;14.30;99.90
11925;DHT22;6022;48.768;18.608;2022-10-16T17:31:35;14.20;99.90
11925;DHT22;6022;48.768;18.608;2022-10-16T17:34:06;15.00;99.90
11925;DHT22;6022;48.768;18.608;2022-10-16T17:36:36;14.50;99.90
11925;DHT22;6022;48.768;18.608;2022-10-16T17:39:07;14.60;99.90
11925;DHT22;6022;48.768;18.608;2022-10-16T17:41:36;15.20;99.90
11925;DHT22;6022;48.768;18.608;2022-10-16T17:44:05;14.60;99.90
11925;DHT22;6022;48.768;18.608;2022-10-16T17:46:33;14.90;99.90
11925;DHT22;6022;48.768;18.608;2022-10-16T17:49:11;14.80;99.90
11925;DHT22;6022;48.768;18.608;2022-10-16T17:51:39;14.50;99.90
11925;DHT22;6022;48.768;18.608;2022-10-16T17:54:08;14.30;99.90
11925;DHT22;6022;48.768;18.608;2022-10-16T17:56:37;14.50;99.90
11925;DHT22;6022;48.768;18.608;2022-10-16T17:59:06;14.50;99.90
11925;DHT22;6022;48.768;18.608;2022-10-16T18:01:39;14.80;99.90
11925;DHT22;6022;48.768;18.608;2022-10-16T18:04:13;14.40;99.90
11925;DHT22;6022;48.768;18.608;2022-10-16T18:06:44;13.90;99.90
11925;DHT22;6022;48.768;18.608;2022-10-16T18:09:15;14.60;99.90
11925;DHT22;6022;48.768;18.608;2022-10-16T18:11:45;14.40;99.90
11925;DHT22;6022;48.768;18.608;2022-10-16T18:14:16;14.50;99.90
11925;DHT22;6022;48.768;18.608;2022-10-16T18:16:44;14.10;99.90
11925;DHT22;6022;48.768;18.608;2022-10-16T18:19:13;14.30;99.90
11925;DHT22;6022;48.768;18.608;2022-10-16T18:21:41;14.50;99.90
11925;DHT22;6022;48.768;18.608;2022-10-16T18:24:11;13.40;99.90
11925;DHT22;6022;48.768;18.608;2022-10-16T18:26:40;14.10;99.90
11925;DHT22;6022;48.768;18.608;2022-10-16T18:29:10;14.00;99.90
11925;DHT22;6022;48.768;18.608;2022-10-16T18:31:39;14.50;99.90
11925;DHT22;6022;48.768;18.608;2022-10-16T18:34:10;13.90;99.90
11925;DHT22;6022;48.768;18.608;2022-10-16T18:36:38;14.10;99.90
11925;DHT22;6022;48.768;18.608;2022-10-16T18:39:10;14.00;99.90
11925;DHT22;6022;48.768;18.608;2022-10-16T18:41:42;14.00;99.90
11925;DHT22;6022;48.768;18.608;2022-10-16T18:44:12;14.10;99.90
11925;DHT22;6022;48.768;18.608;2022-10-16T18:46:41;14.20;99.90
11925;DHT22;6022;48.768;18.608;2022-10-16T18:49:11;14.00;99.90
11925;DHT22;6022;48.768;18.608;2022-10-16T18:51:40;14.10;99.90
11925;DHT22;6022;48.768;18.608;2022-10-16T18:54:11;13.70;99.90
11925;DHT22;6022;48.768;18.608;2022-10-16T18:56:39;14.00;99.90
11925;DHT22;6022;48.768;18.608;2022-10-16T18:59:08;13.20;99.90